Holloman Air Force Base, NM

8:52 AM MDT on July 24, 2016 (GMT -0600)
Holloman AFB | | Change Station

Elev 4094 ft 32.85 °N, 106.11 °W | Updated 17 hours ago

Clear
Clear
87 °F
Feels Like 87 °F
N
5
Wind Variable Wind from SSW
Gusts mph

Today
High -- | Low -- °F
--% Chance of Precip.
Yesterday
High -- | Low -- °F
Precip. -- in
Pressure 29.72 in
Visibility 10.0 miles
Clouds Clear
Dew Point 45 °F
Humidity 24%
Rainfall 0.00 in
Snow Depth Not available.
6:13 AM 8:08 PM
Waning Gibbous, 75% visible
METAR KHMN 232058Z AUTO 14007KT 10SM CLR 38/06 A2997 RMK AO2 SLP064 T03810057 57025 $
Pressure 29.72 in
Visibility 10.0 miles
Clouds Clear
Dew Point 45 °F
Humidity 24%
Rainfall 0.00 in
Snow Depth Not available.
6:13 AM 8:08 PM
Waning Gibbous, 75% visible
METAR KHMN 232058Z AUTO 14007KT 10SM CLR 38/06 A2997 RMK AO2 SLP064 T03810057 57025 $

10-Day Weather Forecast

Almanac

Astronomy

Jul. 24, 2016 Rise Set
Actual Time
Civil Twilight
Nautical Twilight
Astronomical Twilight
Moon
Length of Visible Light
Length of Day
Tomorrow will be .
, % of the Moon is Illuminated

Today's Extremes

State Highs State Lows

Community

WunderPhotos

Upload Photos

1,927,071 photos uploaded!

WunderBlog® & News

Nearby

Air Quality

  Air Quality AQ Index Pollutant
Not available.

Snow Depth

Station Depth Elevation

Earthquake Activity

City Distance Mag. Time & Date
Minimum magnitude displayed is 2.5.

Coastal Water Temperatures

Place Temperature

Stations

Nearby Weather Stations

Station Location Temp. Windchill Dew Point Humidity Wind Precip. Elev Updated Type
                   

Watches & Warnings

There are currently no watches in effect.